Kenosha, Wisconsin
Current Conditions -  °F | °C
As of 4:53 PM on Monday 20 Oct 2014 (Local Time) from KENW Reporting Station
Overcast Overcast  
Wind Chill: 55°   Ceiling: 4500
Heat Index: 55°   Visibility: 10mi
Dew Point: 45°   Wind: 12mph
Humidity: 69%   Direction: 330°NNW
Pressure: 29.92"   Gusts: 18mph
Location:  42.59°N, 87.82°W
Report Text: KENW 202153Z 33010G16KT 10SM BKN045 OVC060 13/07 A2992 RMK AO2 SLP134 T01280072
Loading
Personal Weather Stations






























Interactive Weather Map
Tropical Storm Tracking
New forecast layout! Learn more

10-Day Weather Forecast

Advertisements
Track Severe Weather on mobile